This is the latest recevied weather packets stored in our database for station/object GW1492. If no packets are shown the sender has not sent any weather packets the latest 10 day(s).
| Time | Temp. | Humidity | Pressure | Rain* | Wind** | Luminosity | Snow |
|---|---|---|---|---|---|---|---|
| 1777301295 | 19.44° C | 60% | 1021.6 hPa | 0.51 mm | - | - | - |
| 1777300948 | 20° C | 59% | 1021.6 hPa | 0.51 mm | - | - | - |
| 1777300590 | 19.44° C | 65% | 1021.6 hPa | 0.51 mm | - | - | - |
| 1777297734 | 13.33° C | 81% | 1021.6 hPa | 0.51 mm | - | - | - |
| 1777297359 | 13.33° C | 82% | 1021.6 hPa | 0.51 mm | - | - | - |
| 1777296286 | 12.22° C | 85% | 1021.6 hPa | 0.51 mm | - | - | - |
| 1777295563 | 11.67° C | 85% | 1022 hPa | 0.51 mm | - | - | - |
| 1777291238 | 8.33° C | 92% | 1021.6 hPa | 0.51 mm | - | - | - |
| 1777289802 | 8.33° C | 92% | 1021.6 hPa | 0.51 mm | - | - | - |
| 1777285834 | 8.33° C | 91% | 1020.9 hPa | 0.51 mm | - | - | - |
| 1777283679 | 8.89° C | 91% | 1020.6 hPa | 0.51 mm | - | - | - |
| 1777278630 | 9.44° C | 92% | 1019.9 hPa | 0.51 mm | - | - | - |
| 1777276462 | 9.44° C | 91% | 1019.3 hPa | 0.51 mm | - | - | - |
| 1777274670 | 10° C | 92% | 1019.9 hPa | 0.51 mm | - | - | - |
| 1777274309 | 10° C | 93% | 1019.6 hPa | 0.51 mm | - | - | - |
| 1777273609 | 10° C | 93% | 1019.6 hPa | 0.51 mm | - | - | - |
| 1777271065 | 10.56° C | 92% | 1019.6 hPa | 0.51 mm | - | - | - |
| 1777270356 | 10.56° C | 91% | 1019.6 hPa | 0.51 mm | - | - | - |
| 1777269979 | 11.11° C | 91% | 1019.6 hPa | 0.51 mm | - | - | - |
| 1777269623 | 11.11° C | 91% | 1019.9 hPa | 0.51 mm | - | - | - |
| 1777267126 | 11.67° C | 90% | 1019.9 hPa | 0 mm | - | - | - |
| 1777266733 | 11.67° C | 90% | 1019.9 hPa | 0 mm | - | - | - |
| 1777263508 | 12.22° C | 88% | 1019.6 hPa | 0 mm | - | - | - |
| 1777254872 | 13.89° C | 83% | 1018.9 hPa | 0 mm | - | - | - |
| 1777254135 | 14.44° C | 83% | 1018.9 hPa | 0 mm | - | - | - |
* Rain since midnight (hover to see other rain measurements)
** Current wind speed in m/s (hover to see current wind gust speed)